Terminal Aerodrome Forecast
Issued by NWS Twin Cities, MN

Home | Current Version | Previous Version | Graphics & Text | Print | Product List | Glossary On
Versions: 1 2 3 4 5 6 7 8 9 10 11 12 13 14 15 16 17 18 19 20
000
FTUS43 KMPX 152300
TAFSTC
TAF
KSTC 152338Z 1600/1624 35012G18KT 2SM RAPLSN OVC010
      TEMPO 1600/1601 3/4SM -SN BR OVC012
     FM160100 34016G24KT 3/4SM -SN BR OVC010
     FM160400 35019G26KT 3SM -SN BR OVC014
     FM160700 33018G25KT P6SM OVC016
     FM161800 33014KT P6SM OVC024=

USA.gov is the U.S. government's official web portal to all federal, state and local government web resources and services.